createdAt,value
2022-08-22T05:33:05.347Z,99.90
2022-08-22T05:35:37.074Z,99.90
2022-08-22T05:38:08.308Z,99.90
2022-08-22T05:40:37.886Z,97.80
2022-08-22T05:43:10.207Z,95.60
2022-08-22T05:45:40.465Z,94.30
2022-08-22T05:48:16.388Z,92.60
2022-08-22T05:50:53.078Z,89.60
2022-08-22T05:53:33.189Z,83.60
2022-08-22T05:56:05.305Z,79.70
2022-08-22T06:01:46.673Z,75.70
2022-08-22T06:06:57.153Z,75.00
2022-08-22T06:09:50.405Z,69.80
2022-08-22T06:12:29.487Z,69.00
2022-08-22T06:15:23.133Z,69.20
2022-08-22T06:17:57.837Z,67.90
2022-08-22T06:20:37.339Z,65.10
2022-08-22T06:23:07.400Z,64.40
2022-08-22T06:25:39.057Z,63.50
2022-08-22T06:28:20.849Z,62.40
2022-08-22T06:30:51.995Z,63.00
2022-08-22T06:33:27.580Z,62.70
2022-08-22T06:36:24.183Z,61.60
2022-08-22T06:39:06.005Z,61.80
2022-08-22T06:41:37.538Z,61.70
2022-08-22T06:44:06.974Z,60.90
2022-08-22T06:46:37.508Z,63.70
2022-08-22T06:49:08.036Z,64.80
2022-08-22T06:51:38.034Z,62.20
2022-08-22T06:54:11.452Z,64.80
2022-08-22T06:56:41.899Z,60.90
2022-08-22T06:59:14.429Z,65.00
2022-08-22T07:02:04.304Z,61.40
2022-08-22T07:04:31.881Z,62.20
2022-08-22T07:07:01.350Z,59.00
2022-08-22T07:09:36.155Z,59.10
2022-08-22T07:12:14.040Z,59.40
2022-08-22T07:14:45.046Z,59.30
2022-08-22T07:17:32.785Z,58.10
2022-08-22T07:20:08.176Z,58.10
2022-08-22T07:22:37.405Z,56.30
2022-08-22T07:25:15.973Z,56.50
2022-08-22T07:30:27.431Z,57.40
2022-08-22T07:33:27.290Z,57.30
2022-08-22T07:36:02.009Z,56.00
2022-08-22T07:38:53.891Z,55.40
2022-08-22T07:41:29.198Z,55.50
2022-08-22T07:44:16.364Z,55.30
2022-08-22T07:47:06.245Z,54.50
2022-08-22T07:49:39.095Z,54.60
2022-08-22T07:52:18.037Z,54.60
2022-08-22T07:54:57.918Z,53.50
2022-08-22T07:57:39.501Z,53.80
2022-08-22T08:00:16.888Z,54.00
2022-08-22T08:02:51.792Z,52.10
2022-08-22T08:05:24.050Z,49.80
2022-08-22T08:07:55.194Z,49.10
2022-08-22T08:10:28.523Z,49.70
2022-08-22T08:13:03.375Z,50.60
2022-08-22T08:15:34.281Z,50.10
2022-08-22T08:18:11.016Z,50.20
2022-08-22T08:20:38.810Z,50.60
2022-08-22T08:23:10.073Z,49.60
2022-08-22T08:25:54.901Z,49.20
2022-08-22T08:28:38.090Z,49.00
2022-08-22T08:31:09.739Z,48.40
2022-08-22T08:33:40.704Z,47.70
2022-08-22T08:36:26.611Z,47.20
2022-08-22T08:39:02.885Z,46.50
2022-08-22T08:41:56.762Z,47.80
2022-08-22T08:45:04.750Z,48.60
2022-08-22T08:50:33.523Z,49.00
2022-08-22T08:53:26.907Z,48.80
2022-08-22T08:56:01.820Z,48.30
2022-08-22T08:58:40.754Z,47.70
2022-08-22T09:01:27.758Z,48.20
2022-08-22T09:04:27.448Z,48.10
2022-08-22T09:12:54.284Z,47.70
2022-08-22T09:16:05.232Z,47.80
2022-08-22T09:18:53.307Z,47.60
2022-08-22T09:21:45.524Z,47.10
2022-08-22T09:24:41.365Z,46.70
2022-08-22T09:27:18.980Z,45.60
2022-08-22T09:29:57.272Z,45.70
2022-08-22T09:35:41.873Z,45.80
2022-08-22T09:38:35.985Z,45.30
2022-08-22T09:41:15.794Z,46.30
2022-08-22T09:43:54.324Z,46.70
2022-08-22T09:46:32.040Z,45.70
2022-08-22T09:52:15.140Z,47.90
2022-08-22T09:54:48.922Z,47.70
2022-08-22T09:57:33.927Z,47.30
2022-08-22T10:03:13.921Z,46.40
2022-08-22T10:05:53.177Z,47.70
2022-08-22T10:08:46.938Z,47.00
2022-08-22T10:11:28.987Z,47.50
2022-08-22T10:14:09.331Z,47.60
2022-08-22T10:16:57.027Z,46.80
2022-08-22T10:19:34.181Z,47.20
2022-08-22T10:22:30.190Z,47.60
2022-08-22T10:25:42.157Z,47.40
2022-08-22T10:28:20.439Z,47.40
2022-08-22T10:37:08.083Z,46.90
2022-08-22T10:39:48.706Z,46.30
2022-08-22T10:42:39.793Z,45.40
2022-08-22T10:45:36.759Z,46.00
2022-08-22T10:50:48.512Z,46.30
2022-08-22T10:53:51.865Z,45.60
2022-08-22T10:56:29.455Z,45.70
2022-08-22T10:59:17.713Z,46.70
2022-08-22T11:01:59.974Z,46.20
2022-08-22T11:10:31.802Z,45.80
2022-08-22T11:16:36.552Z,44.30
2022-08-22T11:19:27.612Z,44.60
2022-08-22T11:25:34.098Z,43.90
2022-08-22T11:28:30.780Z,42.50
2022-08-22T11:31:38.196Z,43.30
2022-08-22T11:34:54.455Z,44.50
2022-08-22T11:37:47.812Z,44.20
2022-08-22T11:40:47.911Z,46.00
2022-08-22T11:43:41.924Z,47.00
2022-08-22T11:46:31.957Z,47.10
2022-08-22T11:49:33.132Z,46.80
2022-08-22T11:52:40.308Z,46.90
2022-08-22T11:55:34.707Z,46.90
2022-08-22T11:58:28.885Z,46.30
2022-08-22T12:01:17.155Z,47.40
2022-08-22T12:04:09.693Z,47.30
2022-08-22T12:07:03.551Z,47.60
2022-08-22T12:09:50.712Z,47.90
2022-08-22T12:12:58.427Z,47.30
2022-08-22T12:15:54.013Z,47.60
2022-08-22T12:18:47.177Z,47.90
2022-08-22T12:27:28.649Z,47.30
2022-08-22T12:30:27.625Z,47.40
2022-08-22T12:33:34.645Z,47.40
2022-08-22T12:36:18.709Z,47.70
2022-08-22T12:42:06.181Z,48.10
2022-08-22T12:45:13.376Z,47.90
2022-08-22T12:48:07.091Z,46.90
2022-08-22T12:51:17.223Z,47.00
2022-08-22T12:54:04.679Z,47.90
2022-08-22T12:57:00.900Z,48.40
2022-08-22T12:59:38.575Z,48.40
2022-08-22T13:02:28.196Z,48.00
2022-08-22T13:05:00.742Z,48.20
2022-08-22T13:07:34.843Z,47.50
2022-08-22T13:12:58.460Z,46.90
2022-08-22T13:15:41.932Z,47.30
2022-08-22T13:18:30.286Z,48.00
2022-08-22T13:21:02.438Z,48.40
2022-08-22T13:23:39.951Z,49.00
2022-08-22T13:26:33.181Z,49.20
2022-08-22T13:29:25.044Z,48.70
2022-08-22T13:31:58.972Z,48.60
2022-08-22T13:34:52.843Z,48.10
2022-08-22T13:37:28.593Z,49.00
2022-08-22T13:40:01.957Z,48.50
2022-08-22T13:42:32.537Z,48.80
2022-08-22T13:45:10.843Z,49.20
2022-08-22T13:47:48.783Z,49.00
2022-08-22T13:50:22.698Z,49.50
2022-08-22T13:53:16.003Z,49.60
2022-08-22T13:55:49.883Z,49.70
2022-08-22T13:58:38.072Z,49.80
2022-08-22T14:01:18.713Z,49.80
2022-08-22T14:03:52.969Z,49.50
2022-08-22T14:06:41.225Z,48.60
2022-08-22T14:12:12.678Z,49.60
2022-08-22T14:14:46.046Z,49.80
2022-08-22T14:17:31.458Z,49.70
2022-08-22T14:20:06.899Z,49.50
2022-08-22T14:22:40.992Z,48.70
2022-08-22T14:25:19.387Z,48.50
2022-08-22T14:30:34.408Z,48.00
2022-08-22T14:33:21.750Z,48.00
2022-08-22T14:35:55.555Z,48.10
2022-08-22T14:38:46.274Z,48.00
2022-08-22T14:41:55.753Z,48.10
2022-08-22T14:44:28.058Z,47.70
2022-08-22T14:47:00.648Z,47.20
2022-08-22T14:49:50.637Z,47.20
2022-08-22T14:52:32.709Z,47.30
2022-08-22T14:55:11.078Z,47.80
2022-08-22T14:57:46.677Z,47.70
2022-08-22T15:00:28.629Z,47.30
2022-08-22T15:03:23.525Z,47.20
2022-08-22T15:06:14.329Z,47.60
2022-08-22T15:08:49.946Z,47.50
2022-08-22T15:11:25.133Z,47.40
2022-08-22T15:14:03.098Z,47.10
2022-08-22T15:16:37.337Z,47.60
2022-08-22T15:19:36.071Z,47.00
2022-08-22T15:22:18.942Z,47.80
2022-08-22T15:25:02.644Z,48.00
2022-08-22T15:27:33.406Z,48.30
2022-08-22T15:30:06.389Z,48.60
2022-08-22T15:32:46.559Z,48.70
2022-08-22T15:35:26.818Z,48.60
2022-08-22T15:38:08.146Z,49.10
2022-08-22T15:40:43.423Z,49.20
2022-08-22T15:43:34.873Z,48.90
2022-08-22T15:49:23.049Z,49.20
2022-08-22T15:52:11.210Z,49.50
2022-08-22T15:57:39.726Z,49.30
